Time;durP1;ratioP1;P1;durP2;ratioP2;P2;SDS_P1;SDS_P2;PMS_P1;PMS_P2;Temp;Humidity;BMP_temperature;BMP_pressure;BME280_temperature;BME280_humidity;BME280_pressure;Samples;Min_cycle;Max_cycle;Signal;HPM_P1;HPM_P2
2023/01/03 00:00:46;;;;;;;12.05;6.10;;;;;;;;;;5009259;28;20100;-77
2023/01/03 00:03:15;;;;;;;11.70;5.78;;;;;;;;;;5010447;28;20034;-77
2023/01/03 00:05:47;;;;;;;8.68;4.70;;;;;;;;;;5009166;28;20446;-78
2023/01/03 00:08:14;;;;;;;11.35;4.90;;;;;;;;;;5010702;28;20172;-79
2023/01/03 00:10:39;;;;;;;9.40;5.05;;;;;;;;;;5010824;28;20030;-77
2023/01/03 00:13:05;;;;;;;14.07;6.50;;;;;;;;;;5011576;28;20025;-77
2023/01/03 00:15:34;;;;;;;8.43;4.25;;;;;;;;;;5009796;28;20117;-78
2023/01/03 00:18:00;;;;;;;15.30;5.15;;;;;;;;;;5008705;28;20014;-78
2023/01/03 00:20:25;;;;;;;8.32;4.40;;;;;;;;;;5008689;28;20517;-78
2023/01/03 00:22:51;;;;;;;8.35;4.15;;;;;;;;;;5009965;28;20026;-77
2023/01/03 00:25:16;;;;;;;7.85;4.88;;;;;;;;;;5008256;28;20033;-77
2023/01/03 00:27:42;;;;;;;11.63;5.47;;;;;;;;;;5008320;28;20429;-78
2023/01/03 00:30:08;;;;;;;12.48;5.70;;;;;;;;;;5008474;28;20022;-79
2023/01/03 00:32:34;;;;;;;7.10;4.15;;;;;;;;;;5010314;28;20034;-78
2023/01/03 00:34:59;;;;;;;10.10;4.15;;;;;;;;;;5010110;28;20026;-80
2023/01/03 00:37:25;;;;;;;11.65;4.50;;;;;;;;;;5015371;28;20014;-79
2023/01/03 00:39:50;;;;;;;12.07;4.35;;;;;;;;;;5029752;28;20077;-79
2023/01/03 00:42:16;;;;;;;9.88;4.45;;;;;;;;;;5029842;28;20609;-77
2023/01/03 00:44:41;;;;;;;9.05;4.90;;;;;;;;;;5028250;28;20031;-79
2023/01/03 00:47:07;;;;;;;9.40;4.47;;;;;;;;;;5029423;28;20041;-78
2023/01/03 00:49:32;;;;;;;11.23;4.70;;;;;;;;;;5028030;28;20116;-78
2023/01/03 00:51:58;;;;;;;8.38;4.45;;;;;;;;;;5027758;28;20037;-79
2023/01/03 00:54:23;;;;;;;12.32;4.93;;;;;;;;;;5027860;28;20599;-78
2023/01/03 00:56:50;;;;;;;10.13;5.10;;;;;;;;;;5028003;28;20045;-78
2023/01/03 00:59:17;;;;;;;8.85;4.78;;;;;;;;;;5027696;28;20269;-78
2023/01/03 01:01:46;;;;;;;7.43;4.57;;;;;;;;;;5029339;28;20087;-78
2023/01/03 01:04:18;;;;;;;10.88;4.63;;;;;;;;;;5029222;28;20029;-79
2023/01/03 01:06:45;;;;;;;;;;;;;;;;;;5030093;28;20133;-78
2023/01/03 01:09:14;;;;;;;11.82;5.22;;;;;;;;;;5029246;28;19952;-77
2023/01/03 01:11:40;;;;;;;10.93;4.95;;;;;;;;;;5033729;28;20060;-77
2023/01/03 01:14:18;;;;;;;12.63;5.55;;;;;;;;;;5032238;28;20373;-79
2023/01/03 01:16:52;;;;;;;11.32;5.15;;;;;;;;;;5034007;28;20026;-79
2023/01/03 01:19:20;;;;;;;8.18;5.15;;;;;;;;;;5032591;28;20068;-78
2023/01/03 01:21:46;;;;;;;17.63;5.18;;;;;;;;;;5033812;28;20025;-77
2023/01/03 01:24:12;;;;;;;20.08;9.90;;;;;;;;;;5035353;28;20534;-78
2023/01/03 01:26:38;;;;;;;13.50;6.82;;;;;;;;;;5038529;28;20028;-82
2023/01/03 01:29:05;;;;;;;14.68;6.00;;;;;;;;;;5052426;28;20025;-79
2023/01/03 01:31:31;;;;;;;11.77;5.93;;;;;;;;;;5039577;28;20029;-82
2023/01/03 01:33:57;;;;;;;10.45;5.55;;;;;;;;;;5036360;28;20088;-81
2023/01/03 01:36:29;;;;;;;12.02;6.07;;;;;;;;;;5037005;28;20083;-82
2023/01/03 01:38:55;;;;;;;;;;;;;;;;;;5046529;28;20056;-81
2023/01/03 01:46:51;;;;;;;10.85;6.13;;;;;;;;;;5051850;28;20033;-83
2023/01/03 01:49:24;;;;;;;17.17;6.03;;;;;;;;;;5034516;28;20053;-82
2023/01/03 01:51:50;;;;;;;13.00;5.88;;;;;;;;;;5035137;28;20060;-81
2023/01/03 01:54:16;;;;;;;13.27;5.32;;;;;;;;;;5034813;28;20079;-81
2023/01/03 01:56:47;;;;;;;9.52;4.72;;;;;;;;;;5037141;28;20059;-82
2023/01/03 01:59:13;;;;;;;9.15;5.45;;;;;;;;;;5036423;28;20236;-81
2023/01/03 02:01:41;;;;;;;7.60;5.45;;;;;;;;;;5033250;28;20017;-82
2023/01/03 02:04:16;;;;;;;12.77;5.05;;;;;;;;;;5034979;28;20037;-82
2023/01/03 02:06:42;;;;;;;15.25;5.50;;;;;;;;;;5034299;28;20551;-83
2023/01/03 02:09:07;;;;;;;10.25;4.97;;;;;;;;;;5033564;28;20029;-81
2023/01/03 02:14:53;;;;;;;13.15;5.68;;;;;;;;;;5039456;28;20397;-82
2023/01/03 02:17:37;;;;;;;9.60;5.07;;;;;;;;;;5034207;28;20013;-82
2023/01/03 02:20:21;;;;;;;13.18;5.53;;;;;;;;;;5034061;28;20037;-82
2023/01/03 02:23:04;;;;;;;10.77;4.88;;;;;;;;;;5037022;28;20105;-82
2023/01/03 02:25:36;;;;;;;7.32;4.32;;;;;;;;;;5039718;28;20036;-83
2023/01/03 02:28:23;;;;;;;9.07;4.65;;;;;;;;;;5035294;28;20068;-79
2023/01/03 02:30:58;;;;;;;6.05;3.28;;;;;;;;;;5034165;28;20053;-82
2023/01/03 02:33:44;;;;;;;6.10;3.30;;;;;;;;;;5035295;28;20017;-83
2023/01/03 02:36:16;;;;;;;9.52;4.03;;;;;;;;;;5035613;28;20022;-82
2023/01/03 02:38:49;;;;;;;5.50;3.05;;;;;;;;;;5023645;28;20136;-82
2023/01/03 02:41:31;;;;;;;7.70;3.72;;;;;;;;;;5013284;28;20056;-77
2023/01/03 02:44:20;;;;;;;5.30;2.50;;;;;;;;;;5013766;28;20022;-78
2023/01/03 02:46:50;;;;;;;5.30;1.77;;;;;;;;;;5010936;28;20061;-78
2023/01/03 02:49:30;;;;;;;2.90;1.90;;;;;;;;;;5010045;28;20049;-77
2023/01/03 02:52:01;;;;;;;2.15;1.50;;;;;;;;;;5010380;28;20084;-77
2023/01/03 02:54:32;;;;;;;3.03;1.40;;;;;;;;;;5010141;28;20145;-78
2023/01/03 02:57:03;;;;;;;2.58;1.00;;;;;;;;;;5010027;28;20018;-81
2023/01/03 02:59:36;;;;;;;3.45;0.80;;;;;;;;;;5010323;28;20394;-82
2023/01/03 03:02:04;;;;;;;1.05;0.90;;;;;;;;;;5010403;28;20133;-83
2023/01/03 03:04:31;;;;;;;2.78;1.00;;;;;;;;;;4994039;28;20030;-83
2023/01/03 03:07:03;;;;;;;2.42;0.90;;;;;;;;;;5010498;28;20034;-80
2023/01/03 03:09:29;;;;;;;2.58;0.65;;;;;;;;;;5011896;28;20033;-81
2023/01/03 03:14:49;;;;;;;1.33;0.73;;;;;;;;;;5011358;28;20478;-82
2023/01/03 03:17:29;;;;;;;1.65;0.77;;;;;;;;;;5009471;28;20053;-83
2023/01/03 03:25:53;;;;;;;0.88;0.73;;;;;;;;;;5011599;28;20083;-82
2023/01/03 03:28:34;;;;;;;0.60;0.60;;;;;;;;;;5009381;28;20038;-82
2023/01/03 03:31:19;;;;;;;0.80;0.80;;;;;;;;;;5009658;28;20079;-82
2023/01/03 03:34:05;;;;;;;0.75;0.65;;;;;;;;;;5009075;28;20034;-83
2023/01/03 03:36:30;;;;;;;1.63;0.60;;;;;;;;;;5011650;28;20048;-82
2023/01/03 03:38:56;;;;;;;0.40;0.40;;;;;;;;;;5029426;28;20025;-83
2023/01/03 03:47:50;;;;;;;0.63;0.63;;;;;;;;;;5030611;28;20107;-82
2023/01/03 03:50:16;;;;;;;2.67;0.73;;;;;;;;;;5002563;28;20091;-82
2023/01/03 03:52:45;;;;;;;0.30;0.30;;;;;;;;;;5029200;28;20120;-82
2023/01/03 03:55:16;;;;;;;1.38;0.50;;;;;;;;;;5028847;28;20601;-84
2023/01/03 03:58:03;;;;;;;1.80;0.60;;;;;;;;;;5030863;28;20049;-83
2023/01/03 04:00:33;;;;;;;0.30;0.30;;;;;;;;;;5012737;28;20037;-81
2023/01/03 04:03:02;;;;;;;2.20;0.68;;;;;;;;;;5031525;28;20075;-82
2023/01/03 04:05:33;;;;;;;0.43;0.43;;;;;;;;;;5031016;28;20026;-81
2023/01/03 04:07:59;;;;;;;1.98;0.40;;;;;;;;;;5030718;28;20025;-83
2023/01/03 04:10:25;;;;;;;1.15;0.68;;;;;;;;;;5032746;28;20037;-83
2023/01/03 04:12:51;;;;;;;1.85;0.70;;;;;;;;;;5032948;28;20017;-83
2023/01/03 04:15:17;;;;;;;1.95;0.50;;;;;;;;;;5029027;28;20052;-82
2023/01/03 04:17:43;;;;;;;0.50;0.50;;;;;;;;;;5030796;28;20021;-83
2023/01/03 04:20:10;;;;;;;0.47;0.28;;;;;;;;;;5028875;28;20040;-83
2023/01/03 04:22:35;;;;;;;1.70;0.52;;;;;;;;;;5030413;28;20091;-83
2023/01/03 04:25:01;;;;;;;1.95;0.50;;;;;;;;;;5028858;28;20405;-83
2023/01/03 04:27:27;;;;;;;1.05;0.40;;;;;;;;;;5029346;28;20029;-84
2023/01/03 04:29:52;;;;;;;0.30;0.30;;;;;;;;;;5029466;28;20049;-81
2023/01/03 04:32:18;;;;;;;1.05;0.55;;;;;;;;;;5029108;28;20017;-80
2023/01/03 04:34:43;;;;;;;0.63;0.50;;;;;;;;;;5029027;28;20481;-81
2023/01/03 04:37:09;;;;;;;0.63;0.63;;;;;;;;;;5024988;28;20032;-78
2023/01/03 04:39:34;;;;;;;1.27;0.60;;;;;;;;;;5009416;28;20058;-79
2023/01/03 04:42:00;;;;;;;0.77;0.50;;;;;;;;;;5010022;28;20588;-78
2023/01/03 04:44:26;;;;;;;5.05;0.60;;;;;;;;;;5008921;28;20022;-78
2023/01/03 04:46:52;;;;;;;0.63;0.52;;;;;;;;;;5008101;28;20109;-78
2023/01/03 04:49:18;;;;;;;6.93;2.03;;;;;;;;;;5008275;28;20386;-78
2023/01/03 04:51:43;;;;;;;3.60;0.95;;;;;;;;;;5008300;28;20030;-77
2023/01/03 04:54:09;;;;;;;3.30;1.00;;;;;;;;;;5008857;28;20087;-78
2023/01/03 04:56:36;;;;;;;1.88;0.98;;;;;;;;;;5008887;28;20033;-79
2023/01/03 04:59:02;;;;;;;3.78;1.70;;;;;;;;;;5009174;28;20482;-77
2023/01/03 05:01:28;;;;;;;4.85;1.73;;;;;;;;;;5009914;28;20037;-77
2023/01/03 05:04:00;;;;;;;1.63;0.80;;;;;;;;;;5012137;28;20040;-80
2023/01/03 05:06:26;;;;;;;0.77;0.63;;;;;;;;;;5009929;28;20176;-78
2023/01/03 05:08:55;;;;;;;1.20;1.10;;;;;;;;;;5009043;28;20112;-78
2023/01/03 05:11:21;;;;;;;1.25;0.90;;;;;;;;;;5008847;28;20374;-79
2023/01/03 05:13:47;;;;;;;4.80;1.10;;;;;;;;;;5009741;28;20026;-78
2023/01/03 05:16:13;;;;;;;2.10;0.65;;;;;;;;;;5010197;28;20033;-77
2023/01/03 05:18:42;;;;;;;0.98;0.70;;;;;;;;;;5008705;28;20033;-79
2023/01/03 05:26:41;;;;;;;3.65;1.10;;;;;;;;;;5009620;28;20107;-78
2023/01/03 05:29:08;;;;;;;0.88;0.80;;;;;;;;;;5008110;28;20129;-78
2023/01/03 05:31:33;;;;;;;3.20;1.10;;;;;;;;;;5009313;28;20389;-78
2023/01/03 05:33:59;;;;;;;1.60;1.00;;;;;;;;;;5008379;28;20033;-78
2023/01/03 05:36:25;;;;;;;2.67;1.17;;;;;;;;;;5009104;28;20432;-77
2023/01/03 05:38:50;;;;;;;2.78;1.10;;;;;;;;;;5026444;28;20044;-77
2023/01/03 05:41:58;;;;;;;7.20;2.20;;;;;;;;;;5028584;28;20195;-78
2023/01/03 05:44:04;;;;;;;4.35;1.70;;;;;;;;;;5026954;28;20389;-78
2023/01/03 05:46:31;;;;;;;4.10;1.35;;;;;;;;;;5024754;28;20061;-77
2023/01/03 05:48:56;;;;;;;5.90;1.27;;;;;;;;;;5029101;28;20025;-79
2023/01/03 05:51:22;;;;;;;4.65;1.38;;;;;;;;;;5028960;28;20032;-78
2023/01/03 05:53:47;;;;;;;3.55;1.85;;;;;;;;;;5022667;28;20030;-78
2023/01/03 05:56:13;;;;;;;5.65;1.85;;;;;;;;;;5016011;28;20362;-79
2023/01/03 05:58:38;;;;;;;10.30;2.95;;;;;;;;;;5024220;28;20025;-76
2023/01/03 06:01:08;;;;;;;9.50;2.07;;;;;;;;;;5025685;28;20040;-79
2023/01/03 06:03:34;;;;;;;8.48;2.22;;;;;;;;;;5001745;28;20200;-79
2023/01/03 06:06:06;;;;;;;4.85;1.88;;;;;;;;;;5027886;28;21296;-78
2023/01/03 06:08:32;;;;;;;;;;;;;;;;;;5030622;28;20029;-78
2023/01/03 06:10:57;;;;;;;6.22;3.13;;;;;;;;;;5012320;28;20289;-79
2023/01/03 06:13:23;;;;;;;9.37;1.90;;;;;;;;;;5020583;28;20604;-79
2023/01/03 06:18:36;;;;;;;14.07;6.68;;;;;;;;;;5004854;28;20119;-80
2023/01/03 06:21:03;;;;;;;7.05;3.63;;;;;;;;;;5023118;28;20108;-75
2023/01/03 06:23:29;;;;;;;4.72;2.38;;;;;;;;;;5033450;28;20385;-86
2023/01/03 06:25:54;;;;;;;3.33;1.38;;;;;;;;;;5008203;28;20033;-77
2023/01/03 06:28:20;;;;;;;3.13;1.73;;;;;;;;;;5028652;28;20184;-78
2023/01/03 06:30:45;;;;;;;5.82;1.70;;;;;;;;;;5030099;28;20036;-78
2023/01/03 06:33:11;;;;;;;4.22;1.65;;;;;;;;;;5031225;28;20030;-78
2023/01/03 06:35:38;;;;;;;2.55;1.42;;;;;;;;;;5031345;28;20037;-78
2023/01/03 06:38:03;;;;;;;3.70;1.60;;;;;;;;;;5027594;28;20048;-76
2023/01/03 06:40:29;;;;;;;5.85;1.77;;;;;;;;;;5026151;28;20405;-75
2023/01/03 06:42:54;;;;;;;4.38;1.70;;;;;;;;;;5028027;28;20099;-75
2023/01/03 06:53:38;;;;;;;2.40;1.73;;;;;;;;;;5026670;28;20036;-77
2023/01/03 06:56:05;;;;;;;2.97;1.67;;;;;;;;;;5026518;28;20102;-78
2023/01/03 06:58:30;;;;;;;3.50;1.90;;;;;;;;;;5025289;28;20999;-77
2023/01/03 07:00:58;;;;;;;4.55;1.90;;;;;;;;;;5027443;28;20126;-76
2023/01/03 07:03:24;;;;;;;3.95;1.42;;;;;;;;;;5010809;28;20033;-78
2023/01/03 07:05:52;;;;;;;2.20;1.48;;;;;;;;;;5027847;28;20040;-76
2023/01/03 07:08:17;;;;;;;2.17;1.52;;;;;;;;;;5024027;28;20477;-74
2023/01/03 07:10:43;;;;;;;5.70;2.25;;;;;;;;;;5024061;28;20030;-79
2023/01/03 07:15:53;;;;;;;4.28;2.53;;;;;;;;;;5029100;28;20561;-75
2023/01/03 07:18:19;;;;;;;7.68;2.47;;;;;;;;;;5024897;28;20099;-75
2023/01/03 07:20:45;;;;;;;8.52;2.60;;;;;;;;;;5025813;28;20469;-76
2023/01/03 07:23:11;;;;;;;6.32;2.45;;;;;;;;;;5028089;28;20057;-76
2023/01/03 07:25:40;;;;;;;5.38;2.08;;;;;;;;;;5023029;28;20049;-77
2023/01/03 07:28:10;;;;;;;10.27;2.85;;;;;;;;;;5023909;28;20049;-76
2023/01/03 07:30:41;;;;;;;6.28;2.30;;;;;;;;;;5024248;28;20079;-75
2023/01/03 07:33:09;;;;;;;9.38;3.30;;;;;;;;;;5022640;28;20037;-74
2023/01/03 07:35:36;;;;;;;6.05;3.50;;;;;;;;;;5026672;28;20043;-78
2023/01/03 07:38:02;;;;;;;8.55;2.90;;;;;;;;;;5013861;28;20128;-76
2023/01/03 07:40:28;;;;;;;8.00;3.75;;;;;;;;;;5012299;28;20053;-76
2023/01/03 07:45:45;;;;;;;11.20;3.58;;;;;;;;;;5029376;28;20032;-76
2023/01/03 07:48:11;;;;;;;6.38;2.80;;;;;;;;;;5028784;28;20040;-78
2023/01/03 07:50:37;;;;;;;8.48;3.42;;;;;;;;;;5033030;28;20037;-78
2023/01/03 07:53:05;;;;;;;6.38;2.63;;;;;;;;;;5025075;28;20112;-75
2023/01/03 07:55:32;;;;;;;6.75;2.28;;;;;;;;;;5028111;28;20036;-78
2023/01/03 07:57:58;;;;;;;6.13;2.83;;;;;;;;;;5024925;28;20056;-74
2023/01/03 08:00:24;;;;;;;8.75;2.30;;;;;;;;;;5021161;28;20167;-80
2023/01/03 08:02:54;;;;;;;6.95;2.38;;;;;;;;;;5012566;28;20472;-77
2023/01/03 08:05:20;;;;;;;6.88;2.70;;;;;;;;;;5026730;28;20080;-74
2023/01/03 08:07:47;;;;;;;5.68;1.92;;;;;;;;;;5025710;28;20068;-74
2023/01/03 08:13:17;;;;;;;5.72;2.33;;;;;;;;;;5022067;28;20064;-74
2023/01/03 08:15:55;;;;;;;3.30;2.08;;;;;;;;;;5025097;28;20422;-73
2023/01/03 08:18:23;;;;;;;2.88;1.80;;;;;;;;;;5016023;28;20025;-76
2023/01/03 08:20:50;;;;;;;3.95;2.10;;;;;;;;;;5018237;28;20040;-82
2023/01/03 08:23:16;;;;;;;5.90;3.85;;;;;;;;;;5020066;28;20029;-81
2023/01/03 08:25:42;;;;;;;5.32;2.30;;;;;;;;;;5026239;28;20029;-79
2023/01/03 08:28:09;;;;;;;4.32;1.63;;;;;;;;;;5008654;28;20052;-79
2023/01/03 08:30:41;;;;;;;7.53;2.03;;;;;;;;;;5023946;28;20095;-80
2023/01/03 08:33:10;;;;;;;9.60;2.33;;;;;;;;;;5023708;28;20460;-81
2023/01/03 08:35:39;;;;;;;3.83;2.20;;;;;;;;;;5026135;28;20037;-79
2023/01/03 08:38:10;;;;;;;7.97;2.53;;;;;;;;;;5009367;28;20041;-79
2023/01/03 08:40:38;;;;;;;8.95;2.90;;;;;;;;;;5021874;28;20050;-81
2023/01/03 08:43:04;;;;;;;7.22;3.05;;;;;;;;;;5030099;28;20041;-79
2023/01/03 08:45:30;;;;;;;6.38;2.90;;;;;;;;;;5036728;28;20060;-80
2023/01/03 08:48:00;;;;;;;9.38;3.13;;;;;;;;;;5023121;28;20091;-80
2023/01/03 08:50:26;;;;;;;5.43;3.13;;;;;;;;;;5023520;28;20060;-78
2023/01/03 08:52:53;;;;;;;6.72;3.45;;;;;;;;;;5021675;28;20028;-82
2023/01/03 08:55:19;;;;;;;7.93;4.03;;;;;;;;;;5002642;28;20035;-77
2023/01/03 08:57:44;;;;;;;9.02;3.83;;;;;;;;;;5022612;28;20033;-78
2023/01/03 09:00:10;;;;;;;16.75;4.05;;;;;;;;;;5021604;28;20037;-76
2023/01/03 09:02:36;;;;;;;12.60;3.72;;;;;;;;;;5027644;28;20111;-77
2023/01/03 09:05:01;;;;;;;6.93;3.67;;;;;;;;;;5022446;28;20378;-78
2023/01/03 09:07:27;;;;;;;6.05;3.00;;;;;;;;;;5022691;28;20130;-77
2023/01/03 09:09:52;;;;;;;10.35;2.95;;;;;;;;;;5020694;28;20029;-77
2023/01/03 09:12:18;;;;;;;14.07;4.25;;;;;;;;;;5021311;28;20061;-76
2023/01/03 09:14:45;;;;;;;7.85;3.35;;;;;;;;;;5022963;28;20033;-79
2023/01/03 09:17:10;;;;;;;11.88;3.80;;;;;;;;;;5024284;28;20079;-78
2023/01/03 09:19:36;;;;;;;8.70;2.70;;;;;;;;;;5023416;28;20037;-77
2023/01/03 09:22:02;;;;;;;8.45;3.80;;;;;;;;;;5024305;28;20037;-78
2023/01/03 09:24:27;;;;;;;6.70;3.55;;;;;;;;;;5020701;28;20037;-78
2023/01/03 09:26:53;;;;;;;12.05;4.82;;;;;;;;;;5020514;28;20402;-77
2023/01/03 09:29:19;;;;;;;9.38;4.25;;;;;;;;;;5022778;28;20033;-77
2023/01/03 09:31:44;;;;;;;11.75;5.70;;;;;;;;;;5027152;28;20120;-77
2023/01/03 09:34:11;;;;;;;16.67;5.85;;;;;;;;;;5031110;28;20117;-79
2023/01/03 09:36:37;;;;;;;19.42;7.78;;;;;;;;;;5030023;28;20026;-79
2023/01/03 09:39:04;;;;;;;16.98;7.90;;;;;;;;;;5028618;28;20072;-78
2023/01/03 09:41:31;;;;;;;22.33;8.25;;;;;;;;;;5001941;28;20141;-79
2023/01/03 09:44:04;;;;;;;17.17;8.30;;;;;;;;;;5028360;28;20029;-77
2023/01/03 09:46:31;;;;;;;20.08;9.07;;;;;;;;;;5025421;28;20108;-78
2023/01/03 09:48:58;;;;;;;22.55;8.88;;;;;;;;;;5026041;28;20375;-77
2023/01/03 10:06:04;;;;;;;11.35;5.07;;;;;;;;;;5026725;28;20040;-80
2023/01/03 10:08:48;;;;;;;13.32;6.32;;;;;;;;;;5027662;28;20041;-77
2023/01/03 10:11:32;;;;;;;20.80;7.60;;;;;;;;;;5028932;28;20029;-78
2023/01/03 10:14:35;;;;;;;12.07;6.07;;;;;;;;;;5028011;28;20029;-77
2023/01/03 10:17:16;;;;;;;13.60;6.15;;;;;;;;;;5019169;28;20037;-76
2023/01/03 10:19:44;;;;;;;7.35;4.20;;;;;;;;;;5026820;28;20191;-77
2023/01/03 10:22:20;;;;;;;10.13;4.97;;;;;;;;;;5028303;28;20061;-78
2023/01/03 10:24:49;;;;;;;5.15;2.58;;;;;;;;;;5024843;28;20084;-78
2023/01/03 10:27:15;;;;;;;6.00;2.10;;;;;;;;;;5029005;28;20099;-78
2023/01/03 10:29:42;;;;;;;3.15;1.85;;;;;;;;;;5024451;28;20372;-77
2023/01/03 10:32:48;;;;;;;2.10;1.63;;;;;;;;;;5020671;28;20251;-81
2023/01/03 10:35:30;;;;;;;6.07;1.83;;;;;;;;;;5026319;28;20319;-86
2023/01/03 10:37:56;;;;;;;;;;;;;;;;;;5016440;28;20446;-74
2023/01/03 10:40:44;;;;;;;4.70;1.50;;;;;;;;;;5024114;28;19948;-75
2023/01/03 10:43:27;;;;;;;5.13;1.40;;;;;;;;;;5021501;28;20529;-74
2023/01/03 10:46:11;;;;;;;2.67;1.02;;;;;;;;;;5023598;28;20128;-74
2023/01/03 10:48:42;;;;;;;4.13;1.50;;;;;;;;;;5025667;28;20083;-75
2023/01/03 10:51:26;;;;;;;3.42;1.45;;;;;;;;;;5021221;28;20708;-74
2023/01/03 10:53:55;;;;;;;4.70;1.35;;;;;;;;;;5022370;28;20037;-78
2023/01/03 10:56:23;;;;;;;2.83;1.17;;;;;;;;;;5021336;28;20021;-77
2023/01/03 10:59:18;;;;;;;1.80;1.17;;;;;;;;;;5027435;28;20065;-80
2023/01/03 11:02:15;;;;;;;1.67;1.25;;;;;;;;;;5022177;28;20447;-83
2023/01/03 11:04:41;;;;;;;2.00;1.05;;;;;;;;;;5024051;28;20550;-78
2023/01/03 11:07:07;;;;;;;2.13;1.00;;;;;;;;;;5029478;28;20029;-81
2023/01/03 11:09:40;;;;;;;4.60;1.10;;;;;;;;;;5028606;28;20094;-81
2023/01/03 11:12:13;;;;;;;3.33;1.23;;;;;;;;;;5027167;28;20041;-82
2023/01/03 11:14:49;;;;;;;2.97;1.40;;;;;;;;;;5027568;28;20021;-83
2023/01/03 11:17:23;;;;;;;2.45;1.35;;;;;;;;;;5030625;28;20095;-81
2023/01/03 11:19:51;;;;;;;6.22;1.02;;;;;;;;;;5029277;28;20032;-83
2023/01/03 11:22:41;;;;;;;3.05;0.90;;;;;;;;;;5027544;28;20025;-81
2023/01/03 11:25:15;;;;;;;3.00;1.58;;;;;;;;;;5027918;28;20071;-84
2023/01/03 11:27:50;;;;;;;3.58;0.98;;;;;;;;;;5023897;28;20112;-81
2023/01/03 11:31:07;;;;;;;5.10;1.08;;;;;;;;;;5023712;28;20045;-81
2023/01/03 11:33:59;;;;;;;1.75;0.93;;;;;;;;;;4994398;28;20022;-82
2023/01/03 11:36:37;;;;;;;3.42;1.08;;;;;;;;;;4999907;28;20148;-81
2023/01/03 11:39:21;;;;;;;6.82;1.85;;;;;;;;;;5003319;28;20442;-82
2023/01/03 11:42:13;;;;;;;1.67;1.25;;;;;;;;;;5016394;28;20045;-82
2023/01/03 11:44:54;;;;;;;1.87;0.80;;;;;;;;;;5028692;28;20120;-80
2023/01/03 11:47:41;;;;;;;1.50;0.60;;;;;;;;;;5022135;28;20129;-82
2023/01/03 11:50:11;;;;;;;1.17;0.80;;;;;;;;;;5027555;28;20349;-82
2023/01/03 11:52:47;;;;;;;0.90;0.65;;;;;;;;;;5026396;28;20087;-80
2023/01/03 11:55:33;;;;;;;3.78;1.20;;;;;;;;;;5025504;28;20036;-81
2023/01/03 11:58:25;;;;;;;3.75;0.80;;;;;;;;;;5023041;28;20038;-81
2023/01/03 12:01:12;;;;;;;2.40;1.20;;;;;;;;;;5026179;28;20043;-82
2023/01/03 12:03:53;;;;;;;1.33;1.00;;;;;;;;;;5023210;28;20028;-79
2023/01/03 12:06:37;;;;;;;1.30;0.90;;;;;;;;;;5021651;28;20029;-81
2023/01/03 12:09:14;;;;;;;1.73;1.17;;;;;;;;;;5018358;28;20105;-79
2023/01/03 12:12:10;;;;;;;3.03;1.13;;;;;;;;;;5024148;28;20030;-80
2023/01/03 12:14:53;;;;;;;4.78;1.27;;;;;;;;;;5027406;28;20021;-78
2023/01/03 12:17:40;;;;;;;1.85;0.98;;;;;;;;;;5026429;28;20045;-77
2023/01/03 12:20:22;;;;;;;1.02;0.70;;;;;;;;;;5028564;28;20075;-77
2023/01/03 12:23:04;;;;;;;1.77;0.82;;;;;;;;;;5022233;28;20022;-78
2023/01/03 12:25:35;;;;;;;1.42;0.88;;;;;;;;;;5019324;28;20022;-81
2023/01/03 12:28:10;;;;;;;1.48;1.13;;;;;;;;;;5023989;28;20076;-75
2023/01/03 12:30:44;;;;;;;4.72;1.27;;;;;;;;;;5026563;28;20044;-77
2023/01/03 12:33:31;;;;;;;1.52;1.23;;;;;;;;;;5023615;28;20079;-78
2023/01/03 12:36:02;;;;;;;1.38;1.00;;;;;;;;;;5024875;28;20077;-78
2023/01/03 12:38:39;;;;;;;4.00;0.75;;;;;;;;;;5024439;28;20059;-80
2023/01/03 12:41:49;;;;;;;3.63;1.65;;;;;;;;;;5010503;28;20148;-77
2023/01/03 12:44:29;;;;;;;4.35;1.08;;;;;;;;;;5015862;28;20056;-77
2023/01/03 12:46:55;;;;;;;3.45;1.05;;;;;;;;;;5024989;28;20063;-79
2023/01/03 12:49:31;;;;;;;1.95;0.80;;;;;;;;;;5025485;28;20167;-77
2023/01/03 12:51:58;;;;;;;2.60;0.95;;;;;;;;;;5022726;28;20132;-78
2023/01/03 12:54:48;;;;;;;4.80;0.80;;;;;;;;;;5021829;28;20033;-79
2023/01/03 12:57:17;;;;;;;1.85;0.75;;;;;;;;;;5025329;28;20116;-77
2023/01/03 13:00:18;;;;;;;6.25;0.93;;;;;;;;;;5022465;28;20029;-79
2023/01/03 13:03:14;;;;;;;2.77;1.00;;;;;;;;;;5022231;28;20121;-77
2023/01/03 13:05:50;;;;;;;3.92;1.65;;;;;;;;;;5026747;28;20094;-78
2023/01/03 13:08:28;;;;;;;4.93;0.90;;;;;;;;;;5026479;28;20025;-76
2023/01/03 13:10:59;;;;;;;5.50;1.20;;;;;;;;;;5023846;28;20033;-77
2023/01/03 13:13:25;;;;;;;6.63;1.00;;;;;;;;;;5025562;28;20481;-77
2023/01/03 13:15:52;;;;;;;1.27;0.65;;;;;;;;;;5023902;28;20113;-77
2023/01/03 13:18:24;;;;;;;3.75;1.10;;;;;;;;;;5029836;28;20025;-77
2023/01/03 13:20:51;;;;;;;4.18;1.10;;;;;;;;;;5024520;28;20508;-78
2023/01/03 13:23:20;;;;;;;0.77;0.70;;;;;;;;;;5029456;28;20037;-76
2023/01/03 13:26:15;;;;;;;2.88;1.10;;;;;;;;;;5029660;28;20037;-77
2023/01/03 13:28:41;;;;;;;2.95;1.10;;;;;;;;;;5030190;28;20148;-76
2023/01/03 13:31:34;;;;;;;0.80;0.70;;;;;;;;;;5028847;28;20049;-77
2023/01/03 13:34:16;;;;;;;1.23;0.82;;;;;;;;;;5022165;28;20056;-75
2023/01/03 13:37:08;;;;;;;0.75;0.63;;;;;;;;;;5027896;28;20047;-77
2023/01/03 13:39:39;;;;;;;1.52;0.70;;;;;;;;;;5024966;28;20057;-78
2023/01/03 13:42:05;;;;;;;4.07;0.70;;;;;;;;;;5017855;28;20623;-77
2023/01/03 13:44:30;;;;;;;1.90;0.57;;;;;;;;;;5018855;28;20026;-78
2023/01/03 13:46:58;;;;;;;2.20;0.98;;;;;;;;;;5026906;28;20053;-77
2023/01/03 13:49:26;;;;;;;1.52;0.60;;;;;;;;;;5020646;28;20413;-81
2023/01/03 13:51:57;;;;;;;3.50;1.20;;;;;;;;;;5025990;28;20118;-78
2023/01/03 13:54:34;;;;;;;2.63;0.82;;;;;;;;;;5028030;28;20030;-80
2023/01/03 13:57:03;;;;;;;2.38;0.90;;;;;;;;;;5026615;28;20033;-80
2023/01/03 13:59:43;;;;;;;3.17;0.90;;;;;;;;;;5024569;28;20108;-78
2023/01/03 14:02:27;;;;;;;4.05;1.23;;;;;;;;;;5027013;28;20025;-80
2023/01/03 14:05:02;;;;;;;1.73;1.38;;;;;;;;;;5026720;28;20091;-79
2023/01/03 14:07:31;;;;;;;1.02;0.98;;;;;;;;;;5026892;28;20040;-79
2023/01/03 14:10:08;;;;;;;2.50;1.00;;;;;;;;;;5023923;28;20037;-76
2023/01/03 14:13:05;;;;;;;2.45;0.93;;;;;;;;;;5018609;28;20167;-80
2023/01/03 14:15:32;;;;;;;2.80;1.20;;;;;;;;;;5027673;28;20034;-77
2023/01/03 14:18:21;;;;;;;4.43;1.10;;;;;;;;;;5026736;28;20132;-77
2023/01/03 14:20:58;;;;;;;2.63;1.20;;;;;;;;;;5019061;28;20037;-78
2023/01/03 14:23:25;;;;;;;3.97;1.17;;;;;;;;;;5026026;28;20029;-79
2023/01/03 14:25:52;;;;;;;1.00;0.75;;;;;;;;;;5019829;28;20120;-77
2023/01/03 14:28:31;;;;;;;2.08;1.00;;;;;;;;;;5025292;28;20049;-78
2023/01/03 14:31:22;;;;;;;3.53;1.45;;;;;;;;;;5023772;28;20116;-79
2023/01/03 14:33:53;;;;;;;4.00;1.20;;;;;;;;;;5020834;28;20037;-78
2023/01/03 14:36:19;;;;;;;4.30;1.80;;;;;;;;;;5024713;28;20199;-78
2023/01/03 14:38:51;;;;;;;2.35;1.17;;;;;;;;;;5021078;28;20707;-79
2023/01/03 14:41:36;;;;;;;12.70;2.33;;;;;;;;;;5017600;28;20064;-79
2023/01/03 14:44:08;;;;;;;6.03;1.95;;;;;;;;;;5026713;28;20115;-79
2023/01/03 14:46:35;;;;;;;3.53;1.80;;;;;;;;;;5019339;28;20057;-78
2023/01/03 14:49:06;;;;;;;4.85;3.08;;;;;;;;;;5026440;28;20068;-80
2023/01/03 14:51:36;;;;;;;22.33;4.10;;;;;;;;;;5023734;28;20037;-79
2023/01/03 14:54:03;;;;;;;3.70;2.05;;;;;;;;;;5026237;28;20402;-80
2023/01/03 14:56:34;;;;;;;7.88;2.40;;;;;;;;;;5025890;28;20072;-81
2023/01/03 14:59:00;;;;;;;40.58;17.92;;;;;;;;;;5028524;28;20083;-78
2023/01/03 15:01:27;;;;;;;3.75;2.13;;;;;;;;;;5025308;28;20036;-77
2023/01/03 15:03:54;;;;;;;3.75;1.42;;;;;;;;;;5025562;28;20771;-77
2023/01/03 15:06:28;;;;;;;9.25;2.28;;;;;;;;;;5029530;28;20026;-78
2023/01/03 15:08:57;;;;;;;5.57;2.55;;;;;;;;;;5021807;28;20029;-81
2023/01/03 15:11:54;;;;;;;5.68;2.97;;;;;;;;;;5023711;28;20037;-79
2023/01/03 15:14:23;;;;;;;6.32;1.70;;;;;;;;;;5047536;28;20033;-77
2023/01/03 15:16:50;;;;;;;4.97;2.08;;;;;;;;;;5028437;28;20025;-79
2023/01/03 15:19:19;;;;;;;5.70;2.15;;;;;;;;;;5042159;28;20034;-79
2023/01/03 15:21:45;;;;;;;7.38;2.58;;;;;;;;;;5027223;28;20114;-79
2023/01/03 15:24:16;;;;;;;4.65;2.10;;;;;;;;;;5023661;28;20798;-78
2023/01/03 15:26:45;;;;;;;;;;;;;;;;;;5022815;28;20105;-79
2023/01/03 15:29:22;;;;;;;7.45;2.63;;;;;;;;;;5010285;28;20372;-79
2023/01/03 15:31:50;;;;;;;11.50;2.72;;;;;;;;;;5024327;28;20033;-76
2023/01/03 15:34:27;;;;;;;6.88;3.03;;;;;;;;;;5024337;28;20097;-79
2023/01/03 15:37:11;;;;;;;12.05;3.58;;;;;;;;;;5023919;28;20056;-78
2023/01/03 15:39:49;;;;;;;9.60;2.22;;;;;;;;;;5024028;28;20053;-78
2023/01/03 15:45:26;;;;;;;8.68;2.30;;;;;;;;;;5029057;28;20040;-79
2023/01/03 15:47:56;;;;;;;4.32;2.70;;;;;;;;;;5019925;28;20485;-74
2023/01/03 15:50:26;;;;;;;4.88;2.88;;;;;;;;;;5022489;28;20144;-76
2023/01/03 15:52:51;;;;;;;6.93;2.80;;;;;;;;;;5022188;28;20051;-75
2023/01/03 15:55:17;;;;;;;5.63;3.20;;;;;;;;;;5027004;28;20041;-76
2023/01/03 15:57:49;;;;;;;6.65;3.22;;;;;;;;;;5007978;28;20037;-75
2023/01/03 16:00:20;;;;;;;13.10;3.55;;;;;;;;;;5021836;28;20025;-75
2023/01/03 16:02:46;;;;;;;5.20;2.43;;;;;;;;;;5006721;28;20041;-77
2023/01/03 16:05:13;;;;;;;10.93;4.40;;;;;;;;;;5024723;28;20266;-73
2023/01/03 16:07:39;;;;;;;9.07;4.85;;;;;;;;;;5023766;28;20038;-74
2023/01/03 16:10:08;;;;;;;15.05;4.82;;;;;;;;;;5027012;28;20397;-76
2023/01/03 16:12:40;;;;;;;7.05;3.38;;;;;;;;;;5025350;28;20036;-78
2023/01/03 16:15:21;;;;;;;8.40;4.00;;;;;;;;;;5027263;28;20033;-80